createdAt,value
2018-06-20T00:00:28.779Z,83.90
2018-06-20T00:05:31.894Z,83.60
2018-06-20T00:10:34.945Z,83.90
2018-06-20T00:15:38.005Z,84.10
2018-06-20T00:20:41.056Z,84.10
2018-06-20T00:25:44.096Z,84.40
2018-06-20T00:30:47.137Z,84.70
2018-06-20T00:35:50.176Z,84.90
2018-06-20T00:40:53.233Z,84.90
2018-06-20T00:45:56.272Z,84.90
2018-06-20T00:50:59.313Z,85.00
2018-06-20T00:56:18.328Z,84.80
2018-06-20T01:01:22.220Z,84.70
2018-06-20T01:06:25.252Z,84.60
2018-06-20T01:11:28.386Z,84.60
2018-06-20T01:16:31.429Z,84.60
2018-06-20T01:21:34.464Z,84.60
2018-06-20T01:26:37.508Z,84.90
2018-06-20T01:31:40.612Z,85.00
2018-06-20T01:36:43.652Z,85.60
2018-06-20T01:41:46.727Z,85.20
2018-06-20T01:46:56.930Z,85.00
2018-06-20T01:51:59.993Z,84.40
2018-06-20T01:57:03.053Z,85.20
2018-06-20T02:02:06.112Z,85.30
2018-06-20T02:07:09.359Z,85.50
2018-06-20T02:12:12.392Z,85.20
2018-06-20T02:17:15.532Z,85.10
2018-06-20T02:22:18.580Z,84.60
2018-06-20T02:27:21.629Z,84.30
2018-06-20T02:32:24.828Z,84.00
2018-06-20T02:37:27.864Z,83.90
2018-06-20T02:42:30.922Z,83.60
2018-06-20T02:47:39.400Z,83.50
2018-06-20T02:52:42.637Z,83.30
2018-06-20T02:57:45.632Z,83.00
2018-06-20T03:07:52.022Z,83.50
2018-06-20T03:12:55.100Z,83.30
2018-06-20T03:17:58.169Z,83.30
2018-06-20T03:23:01.225Z,84.00
2018-06-20T03:28:04.256Z,84.60
2018-06-20T03:33:07.309Z,84.70
2018-06-20T03:38:10.360Z,84.80
2018-06-20T03:43:13.405Z,85.10
2018-06-20T03:53:19.417Z,85.10
2018-06-20T04:03:25.422Z,85.20
2018-06-20T04:13:31.425Z,85.90
2018-06-20T04:18:39.609Z,86.30
2018-06-20T04:23:42.748Z,86.60
2018-06-20T04:28:45.789Z,87.00
2018-06-20T04:33:48.852Z,87.20
2018-06-20T04:38:51.893Z,87.30
2018-06-20T04:43:54.969Z,87.40
2018-06-20T04:48:58.010Z,87.50
2018-06-20T04:54:01.083Z,87.40
2018-06-20T04:59:04.200Z,87.30
2018-06-20T05:04:07.293Z,87.70
2018-06-20T05:09:15.957Z,87.80
2018-06-20T05:14:19.621Z,87.70
2018-06-20T05:19:23.592Z,87.50
2018-06-20T05:24:27.051Z,87.20
2018-06-20T05:29:30.112Z,87.20
2018-06-20T05:34:33.170Z,87.20
2018-06-20T05:39:36.329Z,87.10
2018-06-20T05:44:39.393Z,87.00
2018-06-20T05:49:42.453Z,86.60
2018-06-20T05:54:45.612Z,86.40
2018-06-20T05:59:48.689Z,85.90
2018-06-20T06:04:51.768Z,85.20
2018-06-20T06:09:54.825Z,85.20
2018-06-20T06:14:57.882Z,85.10
2018-06-20T06:20:00.988Z,84.60
2018-06-20T06:25:04.041Z,83.80
2018-06-20T06:30:07.079Z,83.40
2018-06-20T06:35:10.126Z,83.30
2018-06-20T06:40:13.193Z,82.70
2018-06-20T06:45:16.304Z,82.20
2018-06-20T06:50:19.347Z,81.50
2018-06-20T06:55:22.805Z,80.80
2018-06-20T07:00:26.134Z,80.50
2018-06-20T07:05:29.181Z,80.40
2018-06-20T07:15:35.257Z,79.80
2018-06-20T07:20:38.265Z,79.40
2018-06-20T07:25:41.297Z,78.80
2018-06-20T07:30:44.343Z,78.70
2018-06-20T07:35:48.528Z,78.80
2018-06-20T07:40:51.524Z,77.00
2018-06-20T07:45:54.572Z,76.60
2018-06-20T07:50:57.621Z,75.70
2018-06-20T07:56:00.664Z,75.60
2018-06-20T08:01:09.158Z,74.80
2018-06-20T08:06:17.725Z,74.30
2018-06-20T08:11:26.377Z,72.90
2018-06-20T08:16:34.989Z,71.90
2018-06-20T08:21:38.036Z,72.10
2018-06-20T08:26:41.088Z,71.90
2018-06-20T08:31:44.137Z,71.60
2018-06-20T08:36:49.420Z,71.00
2018-06-20T08:41:52.473Z,70.60
2018-06-20T08:46:55.510Z,69.80
2018-06-20T08:51:58.582Z,69.20
2018-06-20T08:57:01.629Z,68.30
2018-06-20T09:02:04.960Z,68.50
2018-06-20T09:07:13.662Z,67.90
2018-06-20T09:12:22.287Z,67.50
2018-06-20T09:17:30.944Z,65.50
2018-06-20T09:22:33.980Z,63.50
2018-06-20T09:27:37.100Z,62.30
2018-06-20T09:32:40.141Z,62.70
2018-06-20T09:37:43.197Z,62.10
2018-06-20T09:42:46.381Z,60.60
2018-06-20T09:47:49.704Z,60.30
2018-06-20T09:52:52.796Z,59.10
2018-06-20T09:57:55.870Z,58.60
2018-06-20T10:03:19.906Z,57.10
2018-06-20T10:08:28.556Z,57.20
2018-06-20T10:13:35.949Z,57.60
2018-06-20T10:18:39.071Z,56.40
2018-06-20T10:23:42.141Z,55.20
2018-06-20T10:28:45.196Z,55.40
2018-06-20T10:33:48.940Z,55.80
2018-06-20T10:38:52.076Z,54.70
2018-06-20T10:43:55.104Z,55.20
2018-06-20T10:54:02.649Z,55.40
2018-06-20T10:59:11.157Z,55.40
2018-06-20T11:04:19.800Z,54.70
2018-06-20T11:09:28.558Z,55.10
2018-06-20T11:14:31.619Z,54.40
2018-06-20T11:19:34.733Z,53.30
2018-06-20T11:24:37.783Z,52.70
2018-06-20T11:29:40.829Z,54.10
2018-06-20T11:34:43.909Z,54.20
2018-06-20T11:39:46.957Z,54.10
2018-06-20T11:44:49.997Z,53.10
2018-06-20T11:49:53.090Z,53.10
2018-06-20T11:55:00.389Z,51.40
2018-06-20T12:00:08.881Z,51.80
2018-06-20T12:05:17.360Z,52.70
2018-06-20T12:10:25.897Z,52.00
2018-06-20T12:15:34.385Z,51.20
2018-06-20T12:20:42.868Z,50.70
2018-06-20T12:25:51.331Z,50.50
2018-06-20T12:30:59.966Z,50.60
2018-06-20T12:36:08.441Z,50.30
2018-06-20T12:41:16.848Z,50.60
2018-06-20T12:46:55.301Z,50.20
2018-06-20T12:51:58.608Z,49.80
2018-06-20T12:57:01.652Z,50.10
2018-06-20T13:02:04.729Z,49.80
2018-06-20T13:07:07.895Z,49.40
2018-06-20T13:12:10.917Z,49.40
2018-06-20T13:17:13.977Z,49.40
2018-06-20T13:22:17.016Z,49.40
2018-06-20T13:27:25.373Z,48.90
2018-06-20T13:32:34.419Z,48.40
2018-06-20T13:37:42.785Z,49.10
2018-06-20T13:43:07.684Z,49.40
2018-06-20T13:48:16.556Z,48.40
2018-06-20T13:53:19.600Z,48.70
2018-06-20T13:58:22.640Z,49.00
2018-06-20T14:03:26.420Z,49.10
2018-06-20T14:08:29.457Z,49.00
2018-06-20T14:13:32.589Z,48.70
2018-06-20T14:18:35.637Z,48.20
2018-06-20T14:23:38.681Z,47.50
2018-06-20T14:28:41.733Z,47.50
2018-06-20T14:33:50.253Z,47.20
2018-06-20T14:38:59.370Z,46.70
2018-06-20T14:44:08.386Z,46.00
2018-06-20T14:49:12.141Z,46.50
2018-06-20T14:54:15.163Z,45.80
2018-06-20T14:59:18.204Z,45.50
2018-06-20T15:04:21.241Z,45.40
2018-06-20T15:09:24.376Z,44.50
2018-06-20T15:14:27.503Z,44.80
2018-06-20T15:19:30.600Z,44.40
2018-06-20T15:24:33.643Z,44.20
2018-06-20T15:29:42.181Z,44.10
2018-06-20T15:34:57.455Z,44.50
2018-06-20T15:40:00.521Z,44.30
2018-06-20T15:45:04.265Z,43.70
2018-06-20T15:50:07.674Z,43.60
2018-06-20T15:55:10.976Z,43.90
2018-06-20T16:00:14.060Z,44.20
2018-06-20T16:05:17.854Z,43.60
2018-06-20T16:10:22.059Z,43.50
2018-06-20T16:15:26.064Z,44.10
2018-06-20T16:20:34.501Z,43.90
2018-06-20T16:25:43.392Z,42.80
2018-06-20T16:30:47.190Z,43.00
2018-06-20T16:35:50.353Z,43.30
2018-06-20T16:40:53.387Z,43.80
2018-06-20T16:45:56.504Z,43.70
2018-06-20T16:50:59.557Z,43.50
2018-06-20T16:56:02.644Z,43.90
2018-06-20T17:01:11.105Z,43.90
2018-06-20T17:11:17.080Z,43.90
2018-06-20T17:16:25.725Z,43.30
2018-06-20T17:22:36.328Z,43.60
2018-06-20T17:27:39.393Z,43.70
2018-06-20T17:32:42.440Z,45.10
2018-06-20T17:37:45.472Z,44.50
2018-06-20T17:42:48.533Z,44.40
2018-06-20T17:47:51.694Z,44.50
2018-06-20T17:53:05.858Z,44.20
2018-06-20T17:58:08.913Z,43.80
2018-06-20T18:03:12.051Z,43.60
2018-06-20T18:13:29.769Z,44.20
2018-06-20T18:18:32.840Z,44.50
2018-06-20T18:23:35.886Z,44.70
2018-06-20T18:28:39.364Z,44.90
2018-06-20T18:33:42.493Z,45.20
2018-06-20T18:38:45.537Z,45.70
2018-06-20T18:43:49.382Z,46.00
2018-06-20T18:48:52.498Z,46.20
2018-06-20T18:53:55.457Z,46.70
2018-06-20T18:59:04.055Z,47.30
2018-06-20T19:04:12.545Z,47.20
2018-06-20T19:09:17.287Z,47.70
2018-06-20T19:14:20.457Z,47.70
2018-06-20T19:19:23.608Z,48.30
2018-06-20T19:24:26.666Z,48.50
2018-06-20T19:39:46.933Z,51.20
2018-06-20T19:44:50.063Z,52.30
2018-06-20T19:49:53.487Z,52.60
2018-06-20T19:54:56.518Z,53.20
2018-06-20T19:59:59.568Z,53.40
2018-06-20T20:05:02.629Z,54.20
2018-06-20T20:10:05.705Z,55.20
2018-06-20T20:15:09.519Z,56.20
2018-06-20T20:20:12.620Z,56.40
2018-06-20T20:25:15.673Z,57.30
2018-06-20T20:30:18.807Z,58.10
2018-06-20T20:35:21.937Z,58.90
2018-06-20T20:40:24.965Z,59.50
2018-06-20T20:45:28.112Z,59.70
2018-06-20T20:50:31.157Z,59.70
2018-06-20T21:00:38.861Z,60.50
2018-06-20T21:05:41.913Z,61.10
2018-06-20T21:10:44.973Z,61.70
2018-06-20T21:15:48.061Z,62.60
2018-06-20T21:20:51.192Z,63.80
2018-06-20T21:25:54.240Z,64.70
2018-06-20T21:30:57.921Z,65.30
2018-06-20T21:36:00.953Z,66.20
2018-06-20T21:41:04.033Z,66.90
2018-06-20T21:46:07.074Z,67.80
2018-06-20T21:51:10.120Z,67.20
2018-06-20T21:56:14.537Z,68.10
2018-06-20T22:01:17.560Z,69.00
2018-06-20T22:06:21.461Z,70.10
2018-06-20T22:16:27.437Z,71.60
2018-06-20T22:21:30.637Z,71.40
2018-06-20T22:26:34.265Z,71.90
2018-06-20T22:31:37.357Z,71.60
2018-06-20T22:36:40.409Z,71.80
2018-06-20T22:41:43.461Z,71.90
2018-06-20T22:46:46.517Z,72.00
2018-06-20T22:51:49.578Z,72.50
2018-06-20T22:56:52.642Z,73.00
2018-06-20T23:01:56.429Z,72.80
2018-06-20T23:06:59.476Z,73.90
2018-06-20T23:12:03.177Z,73.40
2018-06-20T23:17:06.532Z,73.50
2018-06-20T23:22:33.237Z,73.90
2018-06-20T23:27:36.269Z,73.70
2018-06-20T23:43:39.635Z,74.80
2018-06-20T23:48:42.912Z,74.50
2018-06-20T23:53:46.027Z,75.60
2018-06-20T23:58:49.085Z,75.60
